Flight Track Log - Related Links

Times and Time Zones

All times are in EDT time to prevent confusion due to time zone crossing. See the AAL1358 flight status page for this flight to view local times or setup timezone preferences in your user account.

Time Position Orientation Groundspeed Altitude Reporting Facility
EDT Latitude Longitude Course Direction KTS MPH feet Rate Location/Type
Sat 12:01:12 AM 41.9950 -87.9360 330° Northwest 162 186 1,600  Level FlightAware ADS-B
Sat 12:01:19 AM 41.9990 -87.9380 340° North 158 182 1,900 2,222 Climbing FlightAware ADS-B
Sat 12:01:39 AM 42.0120 -87.9310 22° Northeast 166 191 2,600 1,588 Climbing FlightAware ADS-B
Sat 12:01:53 AM 42.0210 -87.9200 42° Northeast 188 216 2,800 1,034 Climbing FlightAware ADS-B
Sat 12:02:08 AM 42.0280 -87.9010 64° Northeast 211 243 3,100 1,500 Climbing FlightAware ADS-B
Sat 12:02:37 AM 42.0380 -87.8660 69° East 237 273 3,900 1,855 Climbing FlightAware ADS-B
Sat 12:03:03 AM 42.0500 -87.8280 67° East 255 293 4,800 2,222 Climbing FlightAware ADS-B
Sat 12:03:31 AM 42.0630 -87.7850 68° East 270 311 5,900 2,509 Climbing FlightAware ADS-B
Sat 12:03:58 AM 42.0760 -87.7410 68° East 280 322 7,100 2,836 Climbing FlightAware ADS-B
Sat 12:04:26 AM 42.0900 -87.6960 67° East 280 322 8,500 2,949 Climbing FlightAware ADS-B
Sat 12:04:57 AM 42.1060 -87.6450 67° East 288 331 10,000 2,113 Climbing FlightAware ADS-B
Sat 12:05:37 AM 42.1270 -87.5760 68° East 329 379 11,000 1,385 Climbing FlightAware ADS-B
Sat 12:06:15 AM 42.1500 -87.4980 68° East 373 429 11,800 1,950 Climbing FlightAware ADS-B
Sat 12:06:57 AM 42.1780 -87.4060 68° East 388 447 13,600 2,552 Climbing FlightAware ADS-B
Sat 12:07:42 AM 42.2090 -87.3000 68° East 409 471 15,500 2,867 Climbing FlightAware ADS-B
Sat 12:08:27 AM 42.2400 -87.1940 68° East 406 467 17,900 2,824 Climbing FlightAware ADS-B
Sat 12:09:07 AM 42.2690 -87.1010 67° East 419 482 19,500 2,308 Climbing FlightAware ADS-B
Sat 12:09:45 AM 42.2840 -87.0050 78° East 432 497 20,900 2,214 Climbing FlightAware ADS-B
Sat 12:10:31 AM 42.2880 -86.8810 87° East 442 509 22,600 1,731 Climbing FlightAware ADS-B
Sat 12:11:29 AM 42.2940 -86.7260 87° East 447 514 23,900 1,920 Climbing FlightAware ADS-B
Sat 12:12:11 AM 42.2980 -86.5940 88° East 462 532 25,800 2,188 Climbing FlightAware ADS-B
Sat 12:12:54 AM 42.3020 -86.4710 87° East 471 542 27,000 1,610 Climbing FlightAware ADS-B
Sat 12:13:33 AM 42.3070 -86.3520 87° East 477 549 28,000 1,595 Climbing FlightAware ADS-B
Sat 12:14:13 AM 42.3100 -86.2450 88° East 477 549 29,100 1,880 Climbing FlightAware ADS-B
Sat 12:14:56 AM 42.3150 -86.1170 87° East 471 542 30,600 1,641 Climbing FlightAware ADS-B
Sat 12:16:10 AM 42.3136 -85.9264 87° East 472 543 32,300 1,333 Climbing Chicago Center
Sat 12:17:11 AM 42.3106 -85.7506 91° East 472 543 33,600 1,328 Climbing Chicago Center
Sat 12:18:12 AM 42.3089 -85.5347 91° East 482 555 35,000 1,426 Climbing Chicago Center
Sat 12:19:13 AM 42.3058 -85.3561 91° East 481 554 36,500 320 Climbing Chicago Center
Sat 12:24:27 AM 42.3350 -84.4820 91° East 465 535 37,000 82 Climbing FlightAware ADS-B
Sat 12:25:17 AM 42.3510 -84.2910 83° East 464 534 37,000  Level FlightAware ADS-B
Sat 12:25:53 AM 42.3590 -84.1890 84° East 464 534 37,000  Level FlightAware ADS-B
Sat 12:26:41 AM 42.3700 -84.0540 84° East 464 534 37,000  Level FlightAware ADS-B
Sat 12:27:20 AM 42.3800 -83.9410 83° East 464 534 37,000  Level FlightAware ADS-B
Sat 12:28:05 AM 42.3900 -83.8100 84° East 467 537 37,000  Level FlightAware ADS-B
Sat 12:28:45 AM 42.3990 -83.6940 84° East 470 541 37,000  Level FlightAware ADS-B
Sat 12:29:25 AM 42.4080 -83.5780 84° East 471 542 37,000  Level FlightAware ADS-B
Sat 12:29:51 AM 42.4140 -83.5010 84° East 471 542 37,000  Level FlightAware ADS-B
Sat 12:34:19 AM 42.4720 -82.7180 84° East 475 547 37,000  Level FlightAware ADS-B
Sat 12:35:00 AM 42.4800 -82.6000 85° East 476 548 37,000  Level FlightAware ADS-B
Sat 12:35:43 AM 42.4890 -82.4660 85° East 475 547 37,000  Level FlightAware ADS-B
Sat 12:36:25 AM 42.4970 -82.3400 85° East 476 548 37,000  Level FlightAware ADS-B
Sat 12:37:21 AM 42.5080 -82.1730 85° East 475 547 37,000  Level FlightAware ADS-B
Sat 12:38:01 AM 42.5150 -82.0760 84° East 474 545 37,000  Level FlightAware ADS-B
Sat 12:38:46 AM 42.5230 -81.9510 85° East 474 545 37,000  Level FlightAware ADS-B
Sat 12:39:26 AM 42.5300 -81.8240 86° East 473 544 37,000  Level FlightAware ADS-B
Sat 12:40:03 AM 42.5380 -81.7060 85° East 472 543 37,000  Level FlightAware ADS-B
Sat 12:40:48 AM 42.5460 -81.5800 85° East 472 543 37,000  Level FlightAware ADS-B
Sat 12:42:40 AM 42.5660 -81.2430 85° East 475 547 37,000  Level FlightAware ADS-B
Sat 12:43:35 AM 42.5740 -81.0850 86° East 476 548 37,000  Level FlightAware ADS-B
Sat 12:48:20 AM 42.6190 -80.2300 86° East 476 548 37,000  Level FlightAware ADS-B
Sat 12:49:05 AM 42.6250 -80.0960 86° East 476 548 37,000  Level FlightAware ADS-B
Sat 12:49:45 AM 42.6310 -79.9760 86° East 477 549 37,000  Level FlightAware ADS-B
Sat 12:50:25 AM 42.6360 -79.8600 87° East 478 550 37,000  Level FlightAware ADS-B
Sat 12:51:10 AM 42.6420 -79.7220 87° East 480 552 37,000  Level FlightAware ADS-B
Sat 12:51:50 AM 42.6470 -79.6030 87° East 482 555 37,000  Level FlightAware ADS-B
Sat 12:52:30 AM 42.6520 -79.4830 87° East 484 557 37,000  Level FlightAware ADS-B
Sat 12:53:10 AM 42.6570 -79.3600 87° East 486 559 37,000  Level FlightAware ADS-B
Sat 12:53:55 AM 42.6630 -79.2230 87° East 486 559 37,000  Level FlightAware ADS-B
Sat 12:54:35 AM 42.6670 -79.1050 87° East 487 560 37,000  Level FlightAware ADS-B
Sat 12:55:30 AM 42.6740 -78.9340 87° East 487 560 37,000  Level FlightAware ADS-B
Sat 12:56:10 AM 42.6780 -78.8140 87° East 487 560 37,000  Level FlightAware ADS-B
Sat 12:57:25 AM 42.6860 -78.5840 87° East 486 559 37,000  Level FlightAware ADS-B
Sat 12:58:06 AM 42.6900 -78.4630 87° East 485 558 37,000  Level FlightAware ADS-B
Sat 12:58:50 AM 42.6940 -78.3250 88° East 486 559 37,000  Level FlightAware ADS-B
Sat 12:59:25 AM 42.6970 -78.2200 88° East 486 559 37,000  Level FlightAware ADS-B
Sat 01:00:15 AM 42.7020 -78.0670 87° East 487 560 37,000  Level FlightAware ADS-B
Sat 01:00:55 AM 42.7060 -77.9450 87° East 488 562 37,000  Level FlightAware ADS-B
Sat 01:01:40 AM 42.7090 -77.8070 88° East 490 564 37,000  Level FlightAware ADS-B
Sat 01:02:20 AM 42.7130 -77.6840 87° East 491 565 37,000  Level FlightAware ADS-B
Sat 01:03:00 AM 42.7160 -77.5610 88° East 491 565 37,000  Level FlightAware ADS-B
Sat 01:03:45 AM 42.7190 -77.4220 88° East 492 566 37,000  Level FlightAware ADS-B
Sat 01:04:25 AM 42.7220 -77.2980 88° East 492 566 37,000  Level FlightAware ADS-B
Sat 01:05:30 AM 42.7260 -77.0990 88° East 494 568 37,000  Level FlightAware ADS-B
Sat 01:06:20 AM 42.7290 -76.9440 88° East 496 571 37,000  Level FlightAware ADS-B
Sat 01:06:55 AM 42.7310 -76.8360 89° East 497 572 37,000  Level FlightAware ADS-B
Sat 01:07:45 AM 42.7310 -76.6790 90° East 498 573 37,000  Level FlightAware ADS-B
Sat 01:08:25 AM 42.7290 -76.5570 91° East 500 575 37,000  Level FlightAware ADS-B
Sat 01:09:00 AM 42.7260 -76.4470 92° East 501 577 37,000  Level FlightAware ADS-B
Sat 01:09:50 AM 42.7220 -76.2900 92° East 502 578 37,000  Level FlightAware ADS-B
Sat 01:10:30 AM 42.7190 -76.1660 92° East 503 579 37,000  Level FlightAware ADS-B
Sat 01:10:55 AM 42.7170 -76.0870 92° East 503 579 37,000  Level FlightAware ADS-B
Sat 01:11:37 AM 42.7140 -75.9290 91° East 503 579 37,000  Level FlightAware ADS-B
Sat 01:12:15 AM 42.7100 -75.8090 93° East 503 579 37,000  Level FlightAware ADS-B
Sat 01:12:55 AM 42.7070 -75.6840 92° East 505 581 37,000  Level FlightAware ADS-B
Sat 01:13:43 AM 42.7030 -75.5310 92° East 506 582 37,000  Level FlightAware ADS-B
Sat 01:14:25 AM 42.6990 -75.3990 92° East 506 582 37,000  Level FlightAware ADS-B
Sat 01:15:01 AM 42.6950 -75.2830 93° East 507 583 37,000  Level FlightAware ADS-B
Sat 01:15:43 AM 42.6900 -75.1520 93° East 507 583 37,000  Level FlightAware ADS-B
Sat 01:16:51 AM 42.6830 -74.9340 92° East 507 583 37,000  Level FlightAware ADS-B
Sat 01:17:40 AM 42.6770 -74.7800 93° East 508 585 37,000  Level FlightAware ADS-B
Sat 01:18:18 AM 42.6730 -74.6580 93° East 509 586 37,000  Level FlightAware ADS-B
Sat 01:19:02 AM 42.6680 -74.5180 93° East 511 588 37,000  Level FlightAware ADS-B
Sat 01:19:46 AM 42.6620 -74.3750 93° East 514 592 37,000  Level FlightAware ADS-B
Sat 01:20:26 AM 42.6570 -74.2480 93° East 516 594 37,000  Level FlightAware ADS-B
Sat 01:20:41 AM 42.6550 -74.1985 93° East 518 596 37,000  Level FlightAware ADS-B
Sat 01:21:48 AM 42.6460 -73.9820 93° East 519 597 37,000  Level FlightAware ADS-B
Sat 01:22:34 AM 42.6390 -73.8330 94° East 518 596 37,000 -488 Level FlightAware ADS-B
Sat 01:23:14 AM 42.6330 -73.7050 94° East 511 588 36,300 -1,222 Descending FlightAware ADS-B
Sat 01:23:28 AM 42.6311 -73.6591 93° East 517 595 35,900 -2,182 Descending FlightAware ADS-B
Sat 01:23:58 AM 42.6270 -73.5650 93° East 508 585 34,700 -2,449 Descending FlightAware ADS-B
Sat 01:24:17 AM 42.6239 -73.5043 94° East 515 593 33,900 -2,338 Descending FlightAware ADS-B
Sat 01:25:15 AM 42.6150 -73.3200 94° East 508 585 31,700 -1,773 Descending FlightAware ADS-B
Sat 01:26:29 AM 42.6050 -73.1090 94° East 519 597 30,000 -1,525 Descending FlightAware ADS-B
Sat 01:27:13 AM 42.6190 -73.4160 274° West 515 593 28,700 -2,471 Descending FlightAware ADS-B
Sat 01:28:11 AM 42.5870 -72.7760 94° East 500 575 25,800 -3,515 Descending FlightAware ADS-B
Sat 01:28:52 AM 42.5790 -72.6330 94° East 485 558 22,900 -3,253 Descending FlightAware ADS-B
Sat 01:29:34 AM 42.5720 -72.5110 94° East 464 534 21,300 -2,268 Descending FlightAware ADS-B
Sat 01:30:14 AM 42.5660 -72.3940 94° East 456 525 19,800 -2,250 Descending FlightAware ADS-B
Sat 01:31:10 AM 42.5570 -72.2370 94° East 438 504 17,700 -2,220 Descending FlightAware ADS-B
Sat 01:31:54 AM 42.5490 -72.1210 95° East 432 497 16,100 -2,143 Descending FlightAware ADS-B
Sat 01:32:34 AM 42.5420 -72.0140 95° East 425 489 14,700 -2,122 Descending FlightAware ADS-B
Sat 01:33:16 AM 42.5320 -71.9030 97° East 417 480 13,200 -1,884 Descending FlightAware ADS-B
Sat 01:34:00 AM 42.5210 -71.7900 97° East 412 474 12,000 -1,286 Descending FlightAware ADS-B
Sat 01:34:40 AM 42.5120 -71.6890 97° East 404 465 11,400 -438 Descending FlightAware ADS-B
Sat 01:35:36 AM 42.5150 -71.5530 88° East 365 420 11,300 -438 Descending FlightAware ADS-B
Sat 01:36:16 AM 42.5270 -71.4720 79° East 334 384 10,700 -1,286 Descending FlightAware ADS-B
Sat 01:36:46 AM 42.5370 -71.4080 78° East 319 367 9,800 -1,900 Descending FlightAware ADS-B
Sat 01:37:16 AM 42.5450 -71.3510 79° East 317 365 8,800 -1,950 Descending FlightAware ADS-B
Sat 01:37:26 AM 42.5470 -71.3320 82° East 313 360 8,500 -1,886 Descending FlightAware ADS-B
Sat 01:37:51 AM 42.5530 -71.2850 80° East 309 356 7,700 -1,855 Descending FlightAware ADS-B
Sat 01:38:21 AM 42.5590 -71.2250 82° East 299 344 6,800 -1,733 Descending FlightAware ADS-B
Sat 01:38:36 AM 42.5630 -71.1980 79° East 292 336 6,400 -1,867 Descending FlightAware ADS-B
Sat 01:39:06 AM 42.5690 -71.1470 81° East 294 338 5,400 -2,100 Descending FlightAware ADS-B
Sat 01:39:36 AM 42.5760 -71.0900 81° East 288 331 4,300 -1,821 Descending FlightAware ADS-B
Sat 01:40:02 AM 42.5800 -71.0480 83° East 280 322 3,700 -692 Descending FlightAware ADS-B
Sat 01:40:54 AM 42.5810 -70.9670 89° East 217 250 3,400 -269 Descending FlightAware ADS-B
Sat 01:41:09 AM 42.5690 -70.9560 146° Southeast 191 220 3,400 -267 Level FlightAware ADS-B
Sat 01:41:39 AM 42.5440 -70.9430 159° South 193 222 3,200 -533 Descending FlightAware ADS-B
Sat 01:41:54 AM 42.5320 -70.9370 160° South 190 219 3,000 -600 Descending FlightAware ADS-B
Sat 01:42:09 AM 42.5180 -70.9330 168° South 179 206 2,900 -439 Descending FlightAware ADS-B
Sat 01:42:35 AM 42.5020 -70.9390 195° South 179 206 2,700 -480 Descending FlightAware ADS-B
Sat 01:42:59 AM 42.4820 -70.9480 198° South 177 204 2,500 -667 Descending FlightAware ADS-B
Sat 01:43:20 AM 42.4630 -70.9570 199° South 163 188 2,200 -842 Descending FlightAware ADS-B
Sat 01:43:56 AM 42.4410 -70.9680 200° South 141 162 1,700 -750 Descending FlightAware ADS-B
Sat 01:44:16 AM 42.4290 -70.9740 200° South 136 157 1,500 -667 Descending FlightAware ADS-B
Sat 01:44:41 AM 42.4150 -70.9810 200° South 134 154 1,200 -645 Descending FlightAware ADS-B
Sat 01:45:49 AM 42.3789 -71.0011 200° South 146 168 500 -618 Descending Boston Center
Sat 01:48:00 AM 42.3630 -71.0064 180° South  Level Estimated

Login

Don't have an account? Register now (free) for customized features, flight alerts, and more!